Time;durP1;ratioP1;P1;durP2;ratioP2;P2;SDS_P1;SDS_P2;PMS_P1;PMS_P2;Temp;Humidity;BMP_temperature;BMP_pressure;BME280_temperature;BME280_humidity;BME280_pressure;Samples;Min_cycle;Max_cycle;Signal;HPM_P1;HPM_P2
2022/11/21 00:01:47;;;;;;;3.67;1.80;;;;;;;;;;5001506;28;20022;-48
2022/11/21 00:04:12;;;;;;;3.80;2.80;;;;;;;;;;4989619;28;20065;-48
2022/11/21 00:06:37;;;;;;;3.40;2.45;;;;;;;;;;5006257;28;20133;-51
2022/11/21 00:09:03;;;;;;;3.33;2.30;;;;;;;;;;5009886;28;20506;-45
2022/11/21 00:11:28;;;;;;;2.75;1.77;;;;;;;;;;5006508;28;20030;-46
2022/11/21 00:13:53;;;;;;;3.05;1.98;;;;;;;;;;5001437;28;20042;-46
2022/11/21 00:16:19;;;;;;;2.17;1.80;;;;;;;;;;5010809;28;20105;-48
2022/11/21 00:18:44;;;;;;;2.88;2.15;;;;;;;;;;5010083;28;20026;-45
2022/11/21 00:21:15;;;;;;;3.75;1.70;;;;;;;;;;5004525;28;20052;-46
2022/11/21 00:23:41;;;;;;;3.17;2.25;;;;;;;;;;5010185;28;20036;-52
2022/11/21 00:26:08;;;;;;;3.80;2.00;;;;;;;;;;5004153;28;20079;-49
2022/11/21 00:28:34;;;;;;;3.22;1.67;;;;;;;;;;5007186;28;20069;-47
2022/11/21 00:30:59;;;;;;;2.53;1.90;;;;;;;;;;5004212;28;20474;-46
2022/11/21 00:33:25;;;;;;;3.60;2.03;;;;;;;;;;5010252;28;20129;-46
2022/11/21 00:35:50;;;;;;;3.83;1.73;;;;;;;;;;5010032;28;20029;-49
2022/11/21 00:38:16;;;;;;;2.65;1.77;;;;;;;;;;5003979;28;20068;-46
2022/11/21 00:40:44;;;;;;;3.85;2.13;;;;;;;;;;4999678;28;20043;-47
2022/11/21 00:43:10;;;;;;;3.00;1.80;;;;;;;;;;5008930;28;20064;-48
2022/11/21 00:45:36;;;;;;;4.25;1.70;;;;;;;;;;5009130;28;20065;-46
2022/11/21 00:48:01;;;;;;;3.42;1.80;;;;;;;;;;5008567;28;20038;-46
2022/11/21 00:50:27;;;;;;;2.58;1.88;;;;;;;;;;5007815;28;20046;-48
2022/11/21 00:52:56;;;;;;;3.15;2.20;;;;;;;;;;5010391;28;20057;-47
2022/11/21 00:55:22;;;;;;;5.25;2.83;;;;;;;;;;5009304;28;20183;-46
2022/11/21 00:57:47;;;;;;;4.13;2.58;;;;;;;;;;5010000;28;20109;-49
2022/11/21 01:00:13;;;;;;;5.25;2.30;;;;;;;;;;5008120;28;20153;-49
2022/11/21 01:02:39;;;;;;;5.38;1.67;;;;;;;;;;5002135;28;20378;-46
2022/11/21 01:05:05;;;;;;;1.45;1.20;;;;;;;;;;5000143;28;20053;-46
2022/11/21 01:07:31;;;;;;;3.05;1.38;;;;;;;;;;5003209;28;20050;-47
2022/11/21 01:09:56;;;;;;;6.05;1.50;;;;;;;;;;5005756;28;20590;-48
2022/11/21 01:12:22;;;;;;;3.25;1.88;;;;;;;;;;5007500;28;20063;-47
2022/11/21 01:14:48;;;;;;;1.83;1.33;;;;;;;;;;4998965;28;20049;-46
2022/11/21 01:17:13;;;;;;;1.67;1.25;;;;;;;;;;5010021;28;20514;-48
2022/11/21 01:19:38;;;;;;;1.77;1.42;;;;;;;;;;4999406;28;20045;-48
2022/11/21 01:22:04;;;;;;;2.67;1.45;;;;;;;;;;5007581;28;20069;-47
2022/11/21 01:24:29;;;;;;;4.55;1.48;;;;;;;;;;5012211;28;20033;-46
2022/11/21 01:26:55;;;;;;;4.65;1.40;;;;;;;;;;5013968;28;20038;-49
2022/11/21 01:29:20;;;;;;;2.40;1.30;;;;;;;;;;5012366;28;20513;-46
2022/11/21 01:31:46;;;;;;;3.45;1.90;;;;;;;;;;5009425;28;20064;-46
2022/11/21 01:34:13;;;;;;;7.80;3.17;;;;;;;;;;5004413;28;20053;-48
2022/11/21 01:36:39;;;;;;;8.88;3.10;;;;;;;;;;5006178;28;21457;-48
2022/11/21 01:39:06;;;;;;;23.05;6.78;;;;;;;;;;5012977;28;20494;-46
2022/11/21 01:41:37;;;;;;;30.27;8.93;;;;;;;;;;5012271;28;20113;-45
2022/11/21 01:44:12;;;;;;;14.23;4.63;;;;;;;;;;5011598;28;20057;-46
2022/11/21 01:46:37;;;;;;;14.50;5.03;;;;;;;;;;5008367;28;20022;-46
2022/11/21 01:49:12;;;;;;;6.57;3.00;;;;;;;;;;5004999;28;20494;-48
2022/11/21 01:51:43;;;;;;;10.48;3.60;;;;;;;;;;5011912;28;20034;-46
2022/11/21 01:54:12;;;;;;;6.60;2.20;;;;;;;;;;5011246;28;20049;-46
2022/11/21 01:56:52;;;;;;;3.15;1.50;;;;;;;;;;5013162;28;20498;-47
2022/11/21 01:59:32;;;;;;;2.85;1.95;;;;;;;;;;5001346;28;20034;-46
2022/11/21 02:02:00;;;;;;;3.95;1.17;;;;;;;;;;5009833;28;20108;-46
2022/11/21 02:04:29;;;;;;;2.30;1.48;;;;;;;;;;5011997;28;20034;-45
2022/11/21 02:06:55;;;;;;;3.85;1.77;;;;;;;;;;5010264;28;20065;-49
2022/11/21 02:09:22;;;;;;;6.28;1.40;;;;;;;;;;5008030;28;20061;-46
2022/11/21 02:11:54;;;;;;;3.67;1.58;;;;;;;;;;5011566;28;20109;-46
2022/11/21 02:14:19;;;;;;;2.97;1.30;;;;;;;;;;5010296;28;20049;-46
2022/11/21 02:16:45;;;;;;;7.78;1.90;;;;;;;;;;5008485;28;20034;-46
2022/11/21 02:19:27;;;;;;;2.05;1.17;;;;;;;;;;5012884;28;20034;-46
2022/11/21 02:22:04;;;;;;;3.38;1.17;;;;;;;;;;5004936;28;20032;-46
2022/11/21 02:24:34;;;;;;;3.63;1.27;;;;;;;;;;5004747;28;20053;-46
2022/11/21 02:27:00;;;;;;;4.18;1.40;;;;;;;;;;5012986;28;20037;-47
2022/11/21 02:29:26;;;;;;;3.35;1.60;;;;;;;;;;5007313;28;20034;-46
2022/11/21 02:31:52;;;;;;;3.30;1.63;;;;;;;;;;5003146;28;20068;-46
2022/11/21 02:34:18;;;;;;;5.50;1.80;;;;;;;;;;5012163;28;20432;-46
2022/11/21 02:36:45;;;;;;;4.75;1.27;;;;;;;;;;5007838;28;20105;-46
2022/11/21 02:39:18;;;;;;;4.00;1.60;;;;;;;;;;4998993;28;20049;-45
2022/11/21 02:41:51;;;;;;;6.15;1.52;;;;;;;;;;5010349;28;20056;-48
2022/11/21 02:44:26;;;;;;;4.82;1.50;;;;;;;;;;5010955;28;20087;-45
2022/11/21 02:46:52;;;;;;;5.40;1.30;;;;;;;;;;5006280;28;20022;-46
2022/11/21 02:49:29;;;;;;;5.72;1.75;;;;;;;;;;5005765;28;20045;-46
2022/11/21 02:51:54;;;;;;;2.80;1.45;;;;;;;;;;5010923;28;20486;-49
2022/11/21 02:54:19;;;;;;;2.25;1.27;;;;;;;;;;5006598;28;20045;-48
2022/11/21 02:56:45;;;;;;;1.90;1.10;;;;;;;;;;5012007;28;20143;-48
2022/11/21 02:59:10;;;;;;;4.47;2.15;;;;;;;;;;5001924;28;20046;-48
2022/11/21 03:01:35;;;;;;;3.20;1.70;;;;;;;;;;5011972;28;20030;-46
2022/11/21 03:04:01;;;;;;;3.03;1.50;;;;;;;;;;5009714;28;20555;-46
2022/11/21 03:06:26;;;;;;;4.10;1.42;;;;;;;;;;5012188;28;20042;-46
2022/11/21 03:08:51;;;;;;;5.03;1.80;;;;;;;;;;5006059;28;20065;-46
2022/11/21 03:11:17;;;;;;;5.38;1.67;;;;;;;;;;4995183;28;20034;-47
2022/11/21 03:13:42;;;;;;;6.75;1.50;;;;;;;;;;5011480;28;20065;-48
2022/11/21 03:16:08;;;;;;;2.78;1.60;;;;;;;;;;5008658;28;20048;-46
2022/11/21 03:18:33;;;;;;;4.30;1.55;;;;;;;;;;5011891;28;20038;-47
2022/11/21 03:20:58;;;;;;;3.45;1.50;;;;;;;;;;5005673;28;20470;-48
2022/11/21 03:23:24;;;;;;;4.07;1.73;;;;;;;;;;5004177;28;20164;-49
2022/11/21 03:25:49;;;;;;;6.50;1.77;;;;;;;;;;5011566;28;20045;-45
2022/11/21 03:28:14;;;;;;;5.00;1.73;;;;;;;;;;5012248;28;20029;-46
2022/11/21 03:30:40;;;;;;;6.10;1.65;;;;;;;;;;5010175;28;20064;-47
2022/11/21 03:33:05;;;;;;;3.75;1.63;;;;;;;;;;5008960;28;20068;-46
2022/11/21 03:35:30;;;;;;;3.75;1.58;;;;;;;;;;5006170;28;20042;-45
2022/11/21 03:37:56;;;;;;;5.72;1.40;;;;;;;;;;5003517;28;20490;-46
2022/11/21 03:40:21;;;;;;;2.63;1.48;;;;;;;;;;5011508;28;20088;-46
2022/11/21 03:42:46;;;;;;;4.10;1.65;;;;;;;;;;5009616;28;20030;-47
2022/11/21 03:45:12;;;;;;;8.82;1.55;;;;;;;;;;5009684;28;20388;-46
2022/11/21 03:47:37;;;;;;;7.22;2.33;;;;;;;;;;5011111;28;20030;-46
2022/11/21 03:50:03;;;;;;;4.43;1.52;;;;;;;;;;4993545;28;20053;-45
2022/11/21 03:52:28;;;;;;;4.25;1.80;;;;;;;;;;5007248;28;20532;-47
2022/11/21 03:54:54;;;;;;;4.15;1.90;;;;;;;;;;5006420;28;20122;-46
2022/11/21 03:57:19;;;;;;;8.52;2.33;;;;;;;;;;5011075;28;20024;-48
2022/11/21 03:59:44;;;;;;;6.78;2.25;;;;;;;;;;5010214;28;20038;-46
2022/11/21 04:02:10;;;;;;;4.82;2.10;;;;;;;;;;5007597;28;20390;-48
2022/11/21 04:04:35;;;;;;;7.15;2.45;;;;;;;;;;5009100;28;20038;-48
2022/11/21 04:07:00;;;;;;;4.63;2.13;;;;;;;;;;5004155;28;20141;-47
2022/11/21 04:09:26;;;;;;;7.10;2.17;;;;;;;;;;5000752;28;20046;-49
2022/11/21 04:11:51;;;;;;;4.07;1.85;;;;;;;;;;5005664;28;20401;-46
2022/11/21 04:14:16;;;;;;;5.22;1.60;;;;;;;;;;5005780;28;20066;-46
2022/11/21 04:16:42;;;;;;;6.22;1.90;;;;;;;;;;4999118;28;20033;-45
2022/11/21 04:19:07;;;;;;;3.85;1.73;;;;;;;;;;4994957;28;20558;-45
2022/11/21 04:21:32;;;;;;;3.22;1.83;;;;;;;;;;5009575;28;20512;-46
2022/11/21 04:23:58;;;;;;;2.78;1.50;;;;;;;;;;5007259;28;20049;-48
2022/11/21 04:26:23;;;;;;;9.63;1.60;;;;;;;;;;5011027;28;20017;-50
2022/11/21 04:28:48;;;;;;;5.50;1.92;;;;;;;;;;5002358;28;20080;-46
2022/11/21 04:31:14;;;;;;;4.28;1.70;;;;;;;;;;5004851;28;20026;-49
2022/11/21 04:33:39;;;;;;;4.65;1.50;;;;;;;;;;5008936;28;20034;-46
2022/11/21 04:36:08;;;;;;;6.70;1.80;;;;;;;;;;5010244;28;20097;-48
2022/11/21 04:38:33;;;;;;;4.78;1.50;;;;;;;;;;5010330;28;20061;-49
2022/11/21 04:40:58;;;;;;;3.88;1.63;;;;;;;;;;5010244;28;20022;-47
2022/11/21 04:43:24;;;;;;;2.30;1.65;;;;;;;;;;5006435;28;20101;-46
2022/11/21 04:45:49;;;;;;;1.80;1.40;;;;;;;;;;4990417;28;20030;-46
2022/11/21 04:48:14;;;;;;;4.20;1.63;;;;;;;;;;5009259;28;20034;-48
2022/11/21 04:50:40;;;;;;;12.40;4.53;;;;;;;;;;5002566;28;20538;-50
2022/11/21 04:53:05;;;;;;;5.43;2.50;;;;;;;;;;5001918;28;20104;-46
2022/11/21 04:55:31;;;;;;;4.90;2.30;;;;;;;;;;5010084;28;20104;-47
2022/11/21 04:57:57;;;;;;;8.05;2.17;;;;;;;;;;5007577;28;20030;-48
2022/11/21 05:00:23;;;;;;;9.73;2.40;;;;;;;;;;5005809;28;20524;-46
2022/11/21 05:02:48;;;;;;;4.95;1.88;;;;;;;;;;5007162;28;20033;-48
2022/11/21 05:05:14;;;;;;;7.18;1.90;;;;;;;;;;5009693;28;20048;-51
2022/11/21 05:07:39;;;;;;;2.35;1.75;;;;;;;;;;5008178;28;20049;-46
2022/11/21 05:10:06;;;;;;;2.72;1.50;;;;;;;;;;4992843;28;20034;-45
2022/11/21 05:15:15;;;;;;;5.55;1.88;;;;;;;;;;5008116;28;20092;-47
2022/11/21 05:17:41;;;;;;;3.58;1.95;;;;;;;;;;5008378;28;20026;-49
2022/11/21 05:20:07;;;;;;;2.75;1.52;;;;;;;;;;5008985;28;20474;-46
2022/11/21 05:22:32;;;;;;;2.78;1.65;;;;;;;;;;5007068;28;20044;-48
2022/11/21 05:24:57;;;;;;;4.45;2.10;;;;;;;;;;5010395;28;20129;-45
2022/11/21 05:27:23;;;;;;;5.22;1.77;;;;;;;;;;5008366;28;20030;-46
2022/11/21 05:29:48;;;;;;;4.60;1.83;;;;;;;;;;5006965;28;20088;-48
2022/11/21 05:32:14;;;;;;;3.28;1.30;;;;;;;;;;5008730;28;20065;-46
2022/11/21 05:34:39;;;;;;;4.60;2.20;;;;;;;;;;5008324;28;20033;-46
2022/11/21 05:37:04;;;;;;;8.35;2.55;;;;;;;;;;5002632;28;20391;-46
2022/11/21 05:39:30;;;;;;;4.40;3.58;;;;;;;;;;4998109;28;20133;-46
2022/11/21 05:41:55;;;;;;;4.15;1.90;;;;;;;;;;4999106;28;20110;-46
2022/11/21 05:44:21;;;;;;;2.92;2.00;;;;;;;;;;4998426;28;20082;-46
2022/11/21 05:46:46;;;;;;;10.93;2.25;;;;;;;;;;5000692;28;20367;-46
2022/11/21 05:49:11;;;;;;;4.72;1.90;;;;;;;;;;5002523;28;20125;-47
2022/11/21 05:51:37;;;;;;;8.70;2.25;;;;;;;;;;5007432;28;20061;-46
2022/11/21 05:54:03;;;;;;;6.13;2.15;;;;;;;;;;5005110;28;20049;-45
2022/11/21 05:56:29;;;;;;;6.10;2.67;;;;;;;;;;4995462;28;20137;-48
2022/11/21 05:58:55;;;;;;;4.47;2.92;;;;;;;;;;5003692;28;20548;-47
2022/11/21 06:04:04;;;;;;;5.63;3.20;;;;;;;;;;4998728;28;20076;-49
2022/11/21 06:06:29;;;;;;;11.50;3.88;;;;;;;;;;5012850;28;20042;-46
2022/11/21 06:08:55;;;;;;;11.18;3.95;;;;;;;;;;5011850;28;20041;-46
2022/11/21 06:11:20;;;;;;;8.60;3.75;;;;;;;;;;5006406;28;20053;-46
2022/11/21 06:13:45;;;;;;;10.05;4.22;;;;;;;;;;5006132;28;20545;-48
2022/11/21 06:16:13;;;;;;;10.13;4.47;;;;;;;;;;5006933;28;20088;-52
2022/11/21 06:18:40;;;;;;;7.50;3.72;;;;;;;;;;5007854;28;20536;-46
2022/11/21 06:21:14;;;;;;;5.90;3.65;;;;;;;;;;5006538;28;20041;-48
2022/11/21 06:23:40;;;;;;;7.13;3.28;;;;;;;;;;5004691;28;20022;-46
2022/11/21 06:26:10;;;;;;;8.60;3.30;;;;;;;;;;5013453;28;20643;-48
2022/11/21 06:28:38;;;;;;;5.63;3.28;;;;;;;;;;5005888;28;20030;-46
2022/11/21 06:31:05;;;;;;;6.00;3.35;;;;;;;;;;5009379;28;20041;-47
2022/11/21 06:33:30;;;;;;;11.90;3.17;;;;;;;;;;5009143;28;20029;-48
2022/11/21 06:35:56;;;;;;;13.15;3.50;;;;;;;;;;5011305;28;20092;-50
2022/11/21 06:38:22;;;;;;;12.68;5.30;;;;;;;;;;5009097;28;20049;-46
2022/11/21 06:40:47;;;;;;;7.50;3.80;;;;;;;;;;5006026;28;20034;-49
2022/11/21 06:43:13;;;;;;;24.02;10.05;;;;;;;;;;5013021;28;20445;-53
2022/11/21 06:45:38;;;;;;;20.73;6.80;;;;;;;;;;5007697;28;20029;-49
2022/11/21 06:48:04;;;;;;;16.52;5.22;;;;;;;;;;5012416;28;20041;-47
2022/11/21 06:50:30;;;;;;;13.35;6.30;;;;;;;;;;5006680;28;20030;-46
2022/11/21 06:52:59;;;;;;;11.88;3.95;;;;;;;;;;5006092;28;20022;-49
2022/11/21 06:55:26;;;;;;;6.10;2.85;;;;;;;;;;5006351;28;20042;-49
2022/11/21 06:57:52;;;;;;;9.40;3.15;;;;;;;;;;5006454;28;20778;-46
2022/11/21 07:00:17;;;;;;;8.95;2.75;;;;;;;;;;5006937;28;20045;-47
2022/11/21 07:02:43;;;;;;;4.80;2.40;;;;;;;;;;5002492;28;20026;-50
2022/11/21 07:05:08;;;;;;;6.45;2.25;;;;;;;;;;5013062;28;20034;-48
2022/11/21 07:07:34;;;;;;;8.45;2.53;;;;;;;;;;5010872;28;20521;-47
2022/11/21 07:09:59;;;;;;;8.35;2.50;;;;;;;;;;5010464;28;20076;-46
2022/11/21 07:15:09;;;;;;;5.90;2.60;;;;;;;;;;5004183;28;20057;-46
2022/11/21 07:17:34;;;;;;;7.35;2.95;;;;;;;;;;5008293;28;20069;-46
2022/11/21 07:20:00;;;;;;;5.90;2.95;;;;;;;;;;5010093;28;20070;-47
2022/11/21 07:22:25;;;;;;;9.40;2.90;;;;;;;;;;4993637;28;20030;-45
2022/11/21 07:24:50;;;;;;;7.78;2.83;;;;;;;;;;5009778;28;20044;-46
2022/11/21 07:27:16;;;;;;;7.45;2.92;;;;;;;;;;5005403;28;20549;-48
2022/11/21 07:29:41;;;;;;;8.05;3.45;;;;;;;;;;5002048;28;20450;-45
2022/11/21 07:32:06;;;;;;;10.30;4.65;;;;;;;;;;5003307;28;20034;-48
2022/11/21 07:34:32;;;;;;;8.23;4.40;;;;;;;;;;5002326;28;20049;-46
2022/11/21 07:36:57;;;;;;;11.90;4.68;;;;;;;;;;4998916;28;20030;-45
2022/11/21 07:39:22;;;;;;;9.55;4.15;;;;;;;;;;5010517;28;20046;-46
2022/11/21 07:41:48;;;;;;;14.18;4.28;;;;;;;;;;5010045;28;20438;-47
2022/11/21 07:44:13;;;;;;;8.60;3.92;;;;;;;;;;5004374;28;20045;-45
2022/11/21 07:46:38;;;;;;;8.23;3.42;;;;;;;;;;4997687;28;20018;-46
2022/11/21 07:49:04;;;;;;;8.35;2.78;;;;;;;;;;5003429;28;20053;-45
2022/11/21 07:51:29;;;;;;;7.93;3.08;;;;;;;;;;5003371;28;20030;-49
2022/11/21 07:53:55;;;;;;;7.63;2.88;;;;;;;;;;5007614;28;20038;-51
2022/11/21 07:56:20;;;;;;;6.38;2.88;;;;;;;;;;5008770;28;20030;-46
2022/11/21 07:58:45;;;;;;;11.07;2.80;;;;;;;;;;5003480;28;20025;-46
2022/11/21 08:01:11;;;;;;;11.15;3.10;;;;;;;;;;5007008;28;20713;-46
2022/11/21 08:03:36;;;;;;;8.68;3.28;;;;;;;;;;5006967;28;20576;-47
2022/11/21 08:06:03;;;;;;;4.57;2.70;;;;;;;;;;5008763;28;20046;-46
2022/11/21 08:08:29;;;;;;;6.47;2.83;;;;;;;;;;5008466;28;20032;-49
2022/11/21 08:10:54;;;;;;;5.43;3.20;;;;;;;;;;5009628;28;20494;-46
2022/11/21 08:13:20;;;;;;;9.13;3.33;;;;;;;;;;5006626;28;20657;-46
2022/11/21 08:15:45;;;;;;;5.68;2.75;;;;;;;;;;5008671;28;20056;-47
2022/11/21 08:18:13;;;;;;;6.93;3.40;;;;;;;;;;5009694;28;20030;-46
2022/11/21 08:20:39;;;;;;;7.65;3.50;;;;;;;;;;5002764;28;20041;-47
2022/11/21 08:23:05;;;;;;;6.63;3.50;;;;;;;;;;4987099;28;20041;-46
2022/11/21 08:25:31;;;;;;;7.57;2.95;;;;;;;;;;5004288;28;20048;-47
2022/11/21 08:27:57;;;;;;;7.85;3.20;;;;;;;;;;5007967;28;20034;-46
2022/11/21 08:30:23;;;;;;;15.43;3.40;;;;;;;;;;5001922;28;20052;-47
2022/11/21 08:32:48;;;;;;;10.00;3.28;;;;;;;;;;5009759;28;20397;-46
2022/11/21 08:35:14;;;;;;;10.23;4.15;;;;;;;;;;5003649;28;20046;-47
2022/11/21 08:37:39;;;;;;;10.35;4.20;;;;;;;;;;5005444;28;20022;-47
2022/11/21 08:40:05;;;;;;;9.10;3.95;;;;;;;;;;5002002;28;20132;-45
2022/11/21 08:42:31;;;;;;;7.65;3.60;;;;;;;;;;5009928;28;20053;-47
2022/11/21 08:44:56;;;;;;;7.07;3.80;;;;;;;;;;5009149;28;20038;-52
2022/11/21 08:47:21;;;;;;;11.52;3.85;;;;;;;;;;5008477;28;20033;-46
2022/11/21 08:49:47;;;;;;;8.75;3.95;;;;;;;;;;5001898;28;20034;-46
2022/11/21 08:52:16;;;;;;;10.55;4.07;;;;;;;;;;5004256;28;20030;-47
2022/11/21 08:54:43;;;;;;;10.50;4.18;;;;;;;;;;4999675;28;20092;-46
2022/11/21 08:57:08;;;;;;;12.55;5.28;;;;;;;;;;5003013;28;20489;-47
2022/11/21 08:59:33;;;;;;;15.65;3.53;;;;;;;;;;5000869;28;20043;-46
2022/11/21 09:01:59;;;;;;;7.88;3.17;;;;;;;;;;5007346;28;20068;-47
2022/11/21 09:04:24;;;;;;;7.15;3.50;;;;;;;;;;5005565;28;20061;-45
2022/11/21 09:06:50;;;;;;;8.77;3.40;;;;;;;;;;5007813;28;20125;-48
2022/11/21 09:09:15;;;;;;;7.32;2.97;;;;;;;;;;5006744;28;20622;-47
2022/11/21 09:11:41;;;;;;;7.10;2.88;;;;;;;;;;5008898;28;20022;-46
2022/11/21 09:19:34;;;;;;;8.07;2.90;;;;;;;;;;5006995;28;20065;-47
2022/11/21 09:21:59;;;;;;;7.72;3.00;;;;;;;;;;5009949;28;20026;-46
2022/11/21 09:24:24;;;;;;;12.63;3.42;;;;;;;;;;5008996;28;20526;-45
2022/11/21 09:26:50;;;;;;;14.95;3.45;;;;;;;;;;5001448;28;20057;-47
2022/11/21 09:29:15;;;;;;;14.00;3.47;;;;;;;;;;5004851;28;20052;-49
2022/11/21 09:31:41;;;;;;;9.52;3.33;;;;;;;;;;5003896;28;20057;-47
2022/11/21 09:34:07;;;;;;;9.82;4.10;;;;;;;;;;5000463;28;20042;-46
2022/11/21 09:36:32;;;;;;;8.98;3.22;;;;;;;;;;5008920;28;20029;-46
2022/11/21 09:38:58;;;;;;;6.22;3.47;;;;;;;;;;5000044;28;20495;-45
2022/11/21 09:41:51;;;;;;;9.88;3.13;;;;;;;;;;5010876;28;20018;-46
2022/11/21 09:44:37;;;;;;;8.95;3.22;;;;;;;;;;5005693;28;20494;-46
2022/11/21 09:47:21;;;;;;;5.10;2.63;;;;;;;;;;5010029;28;20037;-49
2022/11/21 09:49:55;;;;;;;5.10;2.50;;;;;;;;;;5011001;28;20410;-46
2022/11/21 09:52:26;;;;;;;4.80;2.42;;;;;;;;;;5008530;28;20444;-46
2022/11/21 09:54:56;;;;;;;10.77;2.92;;;;;;;;;;5011825;28;20038;-47
2022/11/21 09:57:24;;;;;;;9.20;3.38;;;;;;;;;;5010580;28;20028;-46
2022/11/21 09:59:50;;;;;;;10.40;2.40;;;;;;;;;;5012937;28;20046;-47
2022/11/21 10:02:18;;;;;;;6.55;2.40;;;;;;;;;;5000875;28;20022;-49
2022/11/21 10:04:47;;;;;;;6.10;2.97;;;;;;;;;;5006643;28;20129;-46
2022/11/21 10:07:23;;;;;;;19.35;3.47;;;;;;;;;;5010735;28;20054;-50
2022/11/21 10:09:54;;;;;;;4.95;2.40;;;;;;;;;;5000769;28;20031;-44
2022/11/21 10:12:50;;;;;;;7.97;2.80;;;;;;;;;;5010698;28;20491;-46
2022/11/21 10:15:53;;;;;;;9.50;2.53;;;;;;;;;;5000178;28;20057;-46
2022/11/21 10:18:39;;;;;;;6.38;2.65;;;;;;;;;;5004873;28;20564;-47
2022/11/21 10:21:10;;;;;;;9.82;2.42;;;;;;;;;;5000562;28;20061;-46
2022/11/21 10:23:48;;;;;;;4.50;2.60;;;;;;;;;;5008883;28;20026;-46
2022/11/21 10:26:16;;;;;;;8.80;2.80;;;;;;;;;;5008997;28;20033;-46
2022/11/21 10:28:59;;;;;;;7.32;3.55;;;;;;;;;;5012448;28;20029;-46
2022/11/21 10:31:29;;;;;;;9.73;3.35;;;;;;;;;;5001885;28;20088;-46
2022/11/21 10:33:56;;;;;;;5.32;2.35;;;;;;;;;;5009007;28;20042;-49
2022/11/21 10:36:38;;;;;;;8.27;2.78;;;;;;;;;;5009634;28;20074;-49
2022/11/21 10:39:17;;;;;;;8.80;2.92;;;;;;;;;;4999619;28;20081;-46
2022/11/21 10:41:54;;;;;;;7.60;2.47;;;;;;;;;;5007266;28;20127;-45
2022/11/21 10:47:26;;;;;;;12.25;2.50;;;;;;;;;;5008543;28;20156;-47
2022/11/21 10:49:52;;;;;;;12.27;2.10;;;;;;;;;;5004203;28;20406;-46
2022/11/21 10:52:24;;;;;;;6.95;2.13;;;;;;;;;;5005783;28;20034;-48
2022/11/21 10:55:03;;;;;;;3.20;2.27;;;;;;;;;;5004951;28;20049;-46
2022/11/21 10:57:49;;;;;;;6.30;2.30;;;;;;;;;;5012493;28;20045;-46
2022/11/21 11:00:21;;;;;;;8.13;2.33;;;;;;;;;;5009285;28;20112;-45
2022/11/21 11:02:55;;;;;;;10.70;4.47;;;;;;;;;;5008893;28;20052;-46
2022/11/21 11:05:23;;;;;;;13.32;6.22;;;;;;;;;;5005502;28;20084;-46
2022/11/21 11:08:11;;;;;;;12.40;5.25;;;;;;;;;;5006406;28;20033;-45
2022/11/21 11:10:41;;;;;;;12.18;3.30;;;;;;;;;;5003797;28;20044;-46
2022/11/21 11:15:58;;;;;;;14.68;7.10;;;;;;;;;;5010150;28;20042;-47
2022/11/21 11:18:24;;;;;;;7.63;3.35;;;;;;;;;;5009863;28;20029;-46
2022/11/21 11:20:50;;;;;;;13.82;4.88;;;;;;;;;;5006966;28;20046;-46
2022/11/21 11:23:26;;;;;;;13.05;3.33;;;;;;;;;;5009774;28;20030;-47
2022/11/21 11:25:57;;;;;;;6.13;2.88;;;;;;;;;;5004605;28;20042;-46
2022/11/21 11:28:34;;;;;;;12.43;3.75;;;;;;;;;;5000290;28;20031;-51
2022/11/21 11:31:00;;;;;;;7.00;3.25;;;;;;;;;;5001018;28;20042;-46
2022/11/21 11:33:39;;;;;;;8.35;3.08;;;;;;;;;;5010140;28;20033;-47
2022/11/21 11:36:13;;;;;;;10.75;3.00;;;;;;;;;;5002682;28;20133;-46
2022/11/21 11:38:41;;;;;;;12.48;3.60;;;;;;;;;;5010899;28;20430;-49
2022/11/21 11:41:24;;;;;;;6.20;2.83;;;;;;;;;;4999983;28;20033;-46
2022/11/21 11:50:12;;;;;;;9.50;3.72;;;;;;;;;;5003621;28;22598;-51
2022/11/21 11:52:58;;;;;;;4.60;3.03;;;;;;;;;;5006403;28;20118;-48
2022/11/21 11:55:33;;;;;;;13.57;4.10;;;;;;;;;;5007040;28;20042;-47
2022/11/21 11:58:01;;;;;;;8.13;4.03;;;;;;;;;;5010612;28;20490;-49
2022/11/21 12:00:36;;;;;;;8.55;4.22;;;;;;;;;;5005796;28;20047;-45
2022/11/21 17:46:06;;;;;;;7.07;4.28;;;;;;;;;;5070210;27;20641;-46
2022/11/21 17:48:33;;;;;;;8.68;4.65;;;;;;;;;;5047395;28;20033;-48
2022/11/21 17:51:06;;;;;;;7.55;4.25;;;;;;;;;;5022825;28;20482;-45
2022/11/21 17:53:36;;;;;;;7.10;5.15;;;;;;;;;;5016819;28;20034;-45
2022/11/21 17:56:04;;;;;;;8.38;4.45;;;;;;;;;;5016253;28;20053;-45
2022/11/21 17:58:30;;;;;;;33.28;18.38;;;;;;;;;;5016414;28;20034;-46
2022/11/21 18:01:00;;;;;;;10.07;5.20;;;;;;;;;;5018825;28;20111;-49
2022/11/21 18:03:27;;;;;;;8.90;4.38;;;;;;;;;;5019198;28;20753;-46
2022/11/21 18:06:04;;;;;;;5.85;3.90;;;;;;;;;;5020371;28;21162;-45
2022/11/21 18:08:35;;;;;;;5.03;3.60;;;;;;;;;;5016600;28;20032;-45
2022/11/21 18:11:01;;;;;;;5.35;3.85;;;;;;;;;;5017388;28;20046;-48
2022/11/21 18:13:28;;;;;;;7.25;4.90;;;;;;;;;;5049189;28;20389;-47
2022/11/21 18:15:54;;;;;;;8.85;5.40;;;;;;;;;;5013877;28;20050;-49
2022/11/21 18:18:19;;;;;;;25.52;16.83;;;;;;;;;;5021025;28;20029;-45
2022/11/21 18:20:45;;;;;;;31.70;19.85;;;;;;;;;;5016732;28;20073;-45
2022/11/21 18:23:10;;;;;;;21.40;15.60;;;;;;;;;;5014420;28;20029;-48
2022/11/21 18:25:37;;;;;;;18.90;12.50;;;;;;;;;;5018501;28;20478;-48
2022/11/21 18:28:03;;;;;;;17.42;11.90;;;;;;;;;;5019876;28;20108;-45
2022/11/21 18:30:30;;;;;;;16.35;9.70;;;;;;;;;;5017509;28;20042;-46
2022/11/21 18:32:56;;;;;;;15.85;11.93;;;;;;;;;;5009537;28;20034;-47
2022/11/21 18:35:21;;;;;;;15.63;12.07;;;;;;;;;;5015105;28;20034;-47
2022/11/21 18:37:46;;;;;;;18.63;12.10;;;;;;;;;;5017495;28;20056;-48
2022/11/21 18:40:12;;;;;;;21.30;13.88;;;;;;;;;;5012904;28;20050;-46
2022/11/21 18:42:37;;;;;;;19.85;14.15;;;;;;;;;;5020833;28;20064;-46
2022/11/21 18:45:03;;;;;;;20.33;15.05;;;;;;;;;;5022768;28;20050;-45
2022/11/21 18:47:28;;;;;;;21.27;16.17;;;;;;;;;;5019734;28;20034;-48
2022/11/21 18:49:54;;;;;;;22.50;15.45;;;;;;;;;;5020261;28;20045;-48
2022/11/21 18:52:19;;;;;;;25.33;17.35;;;;;;;;;;5016130;28;20073;-45
2022/11/21 18:54:45;;;;;;;27.88;21.20;;;;;;;;;;5019450;28;20402;-44
2022/11/21 18:57:10;;;;;;;30.20;21.95;;;;;;;;;;5002858;28;20031;-49
2022/11/21 18:59:36;;;;;;;37.13;22.77;;;;;;;;;;5005610;28;20042;-46
2022/11/21 19:02:01;;;;;;;30.65;20.92;;;;;;;;;;4995194;28;20054;-45
2022/11/21 19:04:27;;;;;;;32.13;20.40;;;;;;;;;;4999610;28;20053;-46
2022/11/21 19:06:53;;;;;;;34.05;23.10;;;;;;;;;;5009877;28;20030;-47
2022/11/21 19:09:18;;;;;;;41.95;24.42;;;;;;;;;;5004619;28;20038;-46
2022/11/21 19:11:43;;;;;;;34.83;23.02;;;;;;;;;;5002805;28;20505;-47
2022/11/21 19:14:09;;;;;;;32.22;22.05;;;;;;;;;;5006337;28;20683;-45
2022/11/21 19:16:34;;;;;;;34.70;20.65;;;;;;;;;;5004100;28;20086;-48
2022/11/21 19:19:00;;;;;;;27.92;16.08;;;;;;;;;;5007629;28;20073;-46
2022/11/21 19:21:26;;;;;;;21.50;15.98;;;;;;;;;;5002297;28;20022;-48
2022/11/21 19:23:51;;;;;;;27.48;14.25;;;;;;;;;;5007834;28;20099;-47
2022/11/21 19:26:20;;;;;;;22.55;11.73;;;;;;;;;;4996556;28;20090;-49
2022/11/21 19:28:46;;;;;;;49.42;27.88;;;;;;;;;;5005661;28;20034;-47
2022/11/21 19:31:14;;;;;;;23.67;15.52;;;;;;;;;;5012073;28;20026;-51
2022/11/21 19:33:40;;;;;;;17.15;11.27;;;;;;;;;;4997909;28;20049;-46
2022/11/21 19:36:14;;;;;;;13.30;10.65;;;;;;;;;;5006310;28;20042;-49
2022/11/21 19:38:40;;;;;;;19.13;11.35;;;;;;;;;;4995124;28;20026;-50
2022/11/21 19:41:12;;;;;;;17.95;10.65;;;;;;;;;;5002447;28;20166;-46
2022/11/21 19:43:45;;;;;;;16.77;9.70;;;;;;;;;;5003233;28;20112;-47
2022/11/21 19:46:15;;;;;;;18.77;9.63;;;;;;;;;;5002167;28;20034;-45
2022/11/21 19:48:41;;;;;;;16.17;9.18;;;;;;;;;;5003977;28;20022;-46
2022/11/21 19:51:07;;;;;;;14.25;9.27;;;;;;;;;;5005993;28;20034;-45
2022/11/21 19:53:37;;;;;;;17.33;10.60;;;;;;;;;;5003509;28;20045;-45
2022/11/21 19:56:14;;;;;;;18.85;9.60;;;;;;;;;;5000012;28;20026;-44
2022/11/21 19:58:40;;;;;;;13.65;9.50;;;;;;;;;;5008532;28;20104;-44
2022/11/21 20:01:08;;;;;;;19.92;9.07;;;;;;;;;;4996561;28;20093;-44
2022/11/21 20:03:34;;;;;;;16.50;10.35;;;;;;;;;;5005145;28;20057;-45
2022/11/21 20:06:04;;;;;;;20.40;12.40;;;;;;;;;;5005124;28;20544;-45
2022/11/21 20:08:29;;;;;;;16.80;9.55;;;;;;;;;;4999025;28;20026;-48
2022/11/21 20:11:09;;;;;;;15.10;9.45;;;;;;;;;;5008005;28;20042;-45
2022/11/21 20:13:34;;;;;;;24.27;17.40;;;;;;;;;;5000441;28;20120;-47
2022/11/21 20:16:00;;;;;;;16.70;11.48;;;;;;;;;;5010298;28;20121;-47
2022/11/21 20:18:26;;;;;;;15.18;11.93;;;;;;;;;;5004157;28;20029;-46
2022/11/21 20:20:51;;;;;;;21.83;15.13;;;;;;;;;;5003098;28;20056;-46
2022/11/21 20:23:16;;;;;;;16.98;12.05;;;;;;;;;;4999127;28;20050;-47
2022/11/21 20:25:42;;;;;;;9.57;5.63;;;;;;;;;;5005044;28;20048;-45
2022/11/21 20:28:08;;;;;;;9.50;6.57;;;;;;;;;;4997452;28;20080;-45
2022/11/21 20:30:33;;;;;;;13.95;9.75;;;;;;;;;;5004433;28;20061;-50
2022/11/21 20:32:59;;;;;;;9.95;6.97;;;;;;;;;;4999149;28;20049;-47
2022/11/21 20:35:24;;;;;;;12.43;7.97;;;;;;;;;;5007206;28;20554;-47
2022/11/21 20:37:49;;;;;;;14.18;9.82;;;;;;;;;;5007584;28;20626;-45
2022/11/21 20:40:15;;;;;;;14.85;9.75;;;;;;;;;;5006178;28;20046;-47
2022/11/21 20:42:40;;;;;;;13.35;9.90;;;;;;;;;;5004317;28;20030;-47
2022/11/21 20:45:06;;;;;;;13.07;8.55;;;;;;;;;;4996135;28;20052;-45
2022/11/21 20:47:35;;;;;;;12.60;9.07;;;;;;;;;;5005644;28;20030;-45
2022/11/21 20:50:01;;;;;;;14.15;11.93;;;;;;;;;;5004283;28;20516;-46